sensor_id;sensor_type;location;lat;lon;timestamp;P1;durP1;ratioP1;P2;durP2;ratioP2
14125;SDS011;7141;49.484;11.242;2023-02-19T00:00:57;9.47;;;5.77;;
14125;SDS011;7141;49.484;11.242;2023-02-19T00:03:23;7.10;;;6.33;;
14125;SDS011;7141;49.484;11.242;2023-02-19T00:05:49;8.73;;;5.63;;
14125;SDS011;7141;49.484;11.242;2023-02-19T00:08:15;5.97;;;5.40;;
14125;SDS011;7141;49.484;11.242;2023-02-19T00:10:41;7.27;;;5.53;;
14125;SDS011;7141;49.484;11.242;2023-02-19T00:13:06;6.43;;;5.50;;
14125;SDS011;7141;49.484;11.242;2023-02-19T00:15:32;5.30;;;4.77;;
14125;SDS011;7141;49.484;11.242;2023-02-19T00:17:59;6.23;;;5.17;;
14125;SDS011;7141;49.484;11.242;2023-02-19T00:20:25;5.43;;;4.80;;
14125;SDS011;7141;49.484;11.242;2023-02-19T00:22:51;7.87;;;5.50;;
14125;SDS011;7141;49.484;11.242;2023-02-19T00:25:17;5.30;;;4.77;;
14125;SDS011;7141;49.484;11.242;2023-02-19T00:27:44;5.23;;;4.73;;
14125;SDS011;7141;49.484;11.242;2023-02-19T00:30:10;4.73;;;4.20;;
14125;SDS011;7141;49.484;11.242;2023-02-19T00:32:36;5.17;;;4.67;;
14125;SDS011;7141;49.484;11.242;2023-02-19T00:35:02;4.80;;;4.23;;
14125;SDS011;7141;49.484;11.242;2023-02-19T00:37:29;4.17;;;3.77;;
14125;SDS011;7141;49.484;11.242;2023-02-19T00:39:55;4.90;;;4.40;;
14125;SDS011;7141;49.484;11.242;2023-02-19T00:42:20;4.47;;;4.07;;
14125;SDS011;7141;49.484;11.242;2023-02-19T00:44:46;4.57;;;3.93;;
14125;SDS011;7141;49.484;11.242;2023-02-19T00:47:12;4.83;;;4.30;;
14125;SDS011;7141;49.484;11.242;2023-02-19T00:49:38;5.77;;;4.30;;
14125;SDS011;7141;49.484;11.242;2023-02-19T00:52:04;4.40;;;4.00;;
14125;SDS011;7141;49.484;11.242;2023-02-19T00:54:30;5.63;;;4.27;;
14125;SDS011;7141;49.484;11.242;2023-02-19T00:56:56;5.80;;;4.30;;
14125;SDS011;7141;49.484;11.242;2023-02-19T00:59:22;5.10;;;4.47;;
14125;SDS011;7141;49.484;11.242;2023-02-19T01:01:48;5.03;;;3.93;;
14125;SDS011;7141;49.484;11.242;2023-02-19T01:04:14;4.60;;;4.07;;
14125;SDS011;7141;49.484;11.242;2023-02-19T01:06:40;4.90;;;4.40;;
14125;SDS011;7141;49.484;11.242;2023-02-19T01:09:06;5.13;;;4.63;;
14125;SDS011;7141;49.484;11.242;2023-02-19T01:11:32;5.07;;;4.37;;
14125;SDS011;7141;49.484;11.242;2023-02-19T01:13:59;4.80;;;4.40;;
14125;SDS011;7141;49.484;11.242;2023-02-19T01:16:26;5.13;;;4.63;;
14125;SDS011;7141;49.484;11.242;2023-02-19T01:18:52;4.73;;;4.30;;
14125;SDS011;7141;49.484;11.242;2023-02-19T01:21:22;6.17;;;4.67;;
14125;SDS011;7141;49.484;11.242;2023-02-19T01:23:49;5.60;;;4.80;;
14125;SDS011;7141;49.484;11.242;2023-02-19T01:26:19;4.97;;;4.47;;
14125;SDS011;7141;49.484;11.242;2023-02-19T01:28:46;5.70;;;5.10;;
14125;SDS011;7141;49.484;11.242;2023-02-19T01:31:13;6.27;;;5.27;;
14125;SDS011;7141;49.484;11.242;2023-02-19T01:33:39;5.80;;;5.20;;
14125;SDS011;7141;49.484;11.242;2023-02-19T01:36:09;5.97;;;5.37;;
14125;SDS011;7141;49.484;11.242;2023-02-19T01:38:35;5.83;;;5.23;;
14125;SDS011;7141;49.484;11.242;2023-02-19T01:41:02;5.60;;;4.93;;
14125;SDS011;7141;49.484;11.242;2023-02-19T01:43:32;6.33;;;5.40;;
14125;SDS011;7141;49.484;11.242;2023-02-19T01:45:59;6.20;;;5.60;;
14125;SDS011;7141;49.484;11.242;2023-02-19T01:48:35;5.67;;;5.13;;
14125;SDS011;7141;49.484;11.242;2023-02-19T01:51:08;7.90;;;6.03;;
14125;SDS011;7141;49.484;11.242;2023-02-19T01:53:35;5.83;;;5.23;;
14125;SDS011;7141;49.484;11.242;2023-02-19T01:56:02;6.40;;;5.77;;
14125;SDS011;7141;49.484;11.242;2023-02-19T01:58:30;6.80;;;5.70;;
14125;SDS011;7141;49.484;11.242;2023-02-19T02:00:58;7.93;;;6.07;;
14125;SDS011;7141;49.484;11.242;2023-02-19T02:03:25;7.60;;;6.33;;
14125;SDS011;7141;49.484;11.242;2023-02-19T02:08:23;6.97;;;6.23;;
14125;SDS011;7141;49.484;11.242;2023-02-19T02:11:08;6.13;;;5.53;;
14125;SDS011;7141;49.484;11.242;2023-02-19T02:13:34;7.83;;;6.57;;
14125;SDS011;7141;49.484;11.242;2023-02-19T02:16:19;8.10;;;6.53;;
14125;SDS011;7141;49.484;11.242;2023-02-19T02:31:34;7.50;;;6.33;;
14125;SDS011;7141;49.484;11.242;2023-02-19T02:34:10;8.00;;;5.97;;
14125;SDS011;7141;49.484;11.242;2023-02-19T02:36:38;6.17;;;5.33;;
14125;SDS011;7141;49.484;11.242;2023-02-19T02:39:06;6.20;;;5.60;;
14125;SDS011;7141;49.484;11.242;2023-02-19T02:41:32;5.97;;;5.37;;
14125;SDS011;7141;49.484;11.242;2023-02-19T02:43:58;6.67;;;5.73;;
14125;SDS011;7141;49.484;11.242;2023-02-19T02:46:27;5.83;;;5.10;;
14125;SDS011;7141;49.484;11.242;2023-02-19T02:48:56;7.77;;;5.07;;
14125;SDS011;7141;49.484;11.242;2023-02-19T02:51:24;6.20;;;5.50;;
14125;SDS011;7141;49.484;11.242;2023-02-19T02:53:58;5.73;;;5.13;;
14125;SDS011;7141;49.484;11.242;2023-02-19T02:56:44;5.73;;;5.10;;
14125;SDS011;7141;49.484;11.242;2023-02-19T02:59:11;5.73;;;4.87;;
14125;SDS011;7141;49.484;11.242;2023-02-19T03:06:51;6.27;;;5.30;;
14125;SDS011;7141;49.484;11.242;2023-02-19T03:09:23;6.37;;;4.80;;
14125;SDS011;7141;49.484;11.242;2023-02-19T03:11:54;5.60;;;4.70;;
14125;SDS011;7141;49.484;11.242;2023-02-19T03:14:42;5.00;;;4.50;;
14125;SDS011;7141;49.484;11.242;2023-02-19T03:17:35;4.43;;;4.03;;
14125;SDS011;7141;49.484;11.242;2023-02-19T03:20:21;4.67;;;4.27;;
14125;SDS011;7141;49.484;11.242;2023-02-19T03:22:48;4.50;;;4.10;;
14125;SDS011;7141;49.484;11.242;2023-02-19T03:25:17;5.07;;;4.57;;
14125;SDS011;7141;49.484;11.242;2023-02-19T03:28:03;4.57;;;4.00;;
14125;SDS011;7141;49.484;11.242;2023-02-19T03:30:30;4.37;;;3.97;;
14125;SDS011;7141;49.484;11.242;2023-02-19T03:35:26;4.70;;;4.20;;
14125;SDS011;7141;49.484;11.242;2023-02-19T03:38:01;4.33;;;3.93;;
14125;SDS011;7141;49.484;11.242;2023-02-19T03:40:29;3.93;;;3.50;;
14125;SDS011;7141;49.484;11.242;2023-02-19T03:42:59;4.47;;;3.73;;
14125;SDS011;7141;49.484;11.242;2023-02-19T03:45:45;5.00;;;4.37;;
14125;SDS011;7141;49.484;11.242;2023-02-19T03:48:21;4.33;;;3.93;;
14125;SDS011;7141;49.484;11.242;2023-02-19T03:50:49;4.33;;;3.90;;
14125;SDS011;7141;49.484;11.242;2023-02-19T03:53:22;4.53;;;3.73;;
14125;SDS011;7141;49.484;11.242;2023-02-19T03:56:02;4.17;;;3.77;;
14125;SDS011;7141;49.484;11.242;2023-02-19T03:58:35;4.17;;;3.77;;
14125;SDS011;7141;49.484;11.242;2023-02-19T04:01:04;4.30;;;3.90;;
14125;SDS011;7141;49.484;11.242;2023-02-19T04:06:00;4.63;;;4.17;;
14125;SDS011;7141;49.484;11.242;2023-02-19T04:08:27;4.53;;;4.00;;
14125;SDS011;7141;49.484;11.242;2023-02-19T04:10:54;3.97;;;3.57;;
14125;SDS011;7141;49.484;11.242;2023-02-19T04:13:26;4.13;;;3.60;;
14125;SDS011;7141;49.484;11.242;2023-02-19T04:15:56;4.73;;;4.07;;
14125;SDS011;7141;49.484;11.242;2023-02-19T04:18:26;4.03;;;3.43;;
14125;SDS011;7141;49.484;11.242;2023-02-19T04:20:53;3.60;;;3.30;;
14125;SDS011;7141;49.484;11.242;2023-02-19T04:23:22;4.00;;;3.57;;
14125;SDS011;7141;49.484;11.242;2023-02-19T04:25:50;3.97;;;3.57;;
14125;SDS011;7141;49.484;11.242;2023-02-19T04:28:17;4.53;;;4.00;;
14125;SDS011;7141;49.484;11.242;2023-02-19T04:30:43;3.50;;;3.20;;
14125;SDS011;7141;49.484;11.242;2023-02-19T04:33:09;4.00;;;3.60;;
14125;SDS011;7141;49.484;11.242;2023-02-19T04:35:35;3.73;;;3.43;;
14125;SDS011;7141;49.484;11.242;2023-02-19T04:38:01;3.50;;;3.20;;
14125;SDS011;7141;49.484;11.242;2023-02-19T04:40:27;3.53;;;3.23;;
14125;SDS011;7141;49.484;11.242;2023-02-19T04:42:53;3.73;;;3.37;;
14125;SDS011;7141;49.484;11.242;2023-02-19T04:45:19;3.73;;;3.40;;
14125;SDS011;7141;49.484;11.242;2023-02-19T04:47:45;4.20;;;3.80;;
14125;SDS011;7141;49.484;11.242;2023-02-19T04:50:11;4.60;;;3.67;;
14125;SDS011;7141;49.484;11.242;2023-02-19T04:52:37;3.60;;;3.30;;
14125;SDS011;7141;49.484;11.242;2023-02-19T04:55:03;4.13;;;3.73;;
14125;SDS011;7141;49.484;11.242;2023-02-19T04:57:29;4.10;;;3.80;;
14125;SDS011;7141;49.484;11.242;2023-02-19T04:59:55;3.50;;;3.20;;
14125;SDS011;7141;49.484;11.242;2023-02-19T05:02:21;4.13;;;3.73;;
14125;SDS011;7141;49.484;11.242;2023-02-19T05:04:47;3.83;;;3.50;;
14125;SDS011;7141;49.484;11.242;2023-02-19T05:07:13;4.10;;;3.73;;
14125;SDS011;7141;49.484;11.242;2023-02-19T05:09:39;4.33;;;3.50;;
14125;SDS011;7141;49.484;11.242;2023-02-19T05:12:05;4.23;;;3.47;;
14125;SDS011;7141;49.484;11.242;2023-02-19T05:14:31;4.03;;;3.50;;
14125;SDS011;7141;49.484;11.242;2023-02-19T05:16:57;3.73;;;3.20;;
14125;SDS011;7141;49.484;11.242;2023-02-19T05:19:23;3.47;;;3.17;;
14125;SDS011;7141;49.484;11.242;2023-02-19T05:21:49;3.60;;;3.30;;
14125;SDS011;7141;49.484;11.242;2023-02-19T05:24:15;3.30;;;3.00;;
14125;SDS011;7141;49.484;11.242;2023-02-19T05:26:41;3.20;;;2.90;;
14125;SDS011;7141;49.484;11.242;2023-02-19T05:29:07;3.10;;;2.80;;
14125;SDS011;7141;49.484;11.242;2023-02-19T05:31:33;3.40;;;3.10;;
14125;SDS011;7141;49.484;11.242;2023-02-19T05:33:59;3.37;;;3.07;;
14125;SDS011;7141;49.484;11.242;2023-02-19T05:36:25;3.07;;;2.77;;
14125;SDS011;7141;49.484;11.242;2023-02-19T05:38:52;3.23;;;2.93;;
14125;SDS011;7141;49.484;11.242;2023-02-19T05:41:20;3.90;;;2.90;;
14125;SDS011;7141;49.484;11.242;2023-02-19T05:43:46;4.77;;;3.20;;
14125;SDS011;7141;49.484;11.242;2023-02-19T05:46:13;2.57;;;2.37;;
14125;SDS011;7141;49.484;11.242;2023-02-19T05:48:39;3.30;;;2.73;;
14125;SDS011;7141;49.484;11.242;2023-02-19T05:51:06;2.83;;;2.60;;
14125;SDS011;7141;49.484;11.242;2023-02-19T05:53:33;2.83;;;2.57;;
14125;SDS011;7141;49.484;11.242;2023-02-19T05:55:59;2.67;;;2.47;;
14125;SDS011;7141;49.484;11.242;2023-02-19T05:58:25;2.40;;;2.20;;
14125;SDS011;7141;49.484;11.242;2023-02-19T06:00:52;4.23;;;2.43;;
14125;SDS011;7141;49.484;11.242;2023-02-19T06:03:17;2.63;;;2.40;;
14125;SDS011;7141;49.484;11.242;2023-02-19T06:05:44;2.20;;;2.00;;
14125;SDS011;7141;49.484;11.242;2023-02-19T06:08:11;2.87;;;2.20;;
14125;SDS011;7141;49.484;11.242;2023-02-19T06:10:37;2.63;;;2.43;;
14125;SDS011;7141;49.484;11.242;2023-02-19T06:13:05;2.57;;;2.03;;
14125;SDS011;7141;49.484;11.242;2023-02-19T06:15:31;3.40;;;2.50;;
14125;SDS011;7141;49.484;11.242;2023-02-19T06:17:57;2.20;;;2.00;;
14125;SDS011;7141;49.484;11.242;2023-02-19T06:20:23;1.90;;;1.80;;
14125;SDS011;7141;49.484;11.242;2023-02-19T06:22:49;2.13;;;1.93;;
14125;SDS011;7141;49.484;11.242;2023-02-19T06:25:16;1.93;;;1.83;;
14125;SDS011;7141;49.484;11.242;2023-02-19T06:27:41;2.17;;;1.97;;
14125;SDS011;7141;49.484;11.242;2023-02-19T06:30:08;2.00;;;1.80;;
14125;SDS011;7141;49.484;11.242;2023-02-19T06:32:34;2.63;;;1.97;;
14125;SDS011;7141;49.484;11.242;2023-02-19T06:35:00;2.20;;;1.83;;
14125;SDS011;7141;49.484;11.242;2023-02-19T06:37:26;2.20;;;2.00;;
14125;SDS011;7141;49.484;11.242;2023-02-19T06:39:52;2.40;;;2.07;;
14125;SDS011;7141;49.484;11.242;2023-02-19T06:42:18;2.00;;;1.80;;
14125;SDS011;7141;49.484;11.242;2023-02-19T06:44:44;2.17;;;1.97;;
14125;SDS011;7141;49.484;11.242;2023-02-19T06:47:09;2.07;;;1.93;;
14125;SDS011;7141;49.484;11.242;2023-02-19T06:49:37;2.20;;;2.00;;
14125;SDS011;7141;49.484;11.242;2023-02-19T06:52:03;2.83;;;2.20;;
14125;SDS011;7141;49.484;11.242;2023-02-19T06:54:29;2.37;;;2.17;;
14125;SDS011;7141;49.484;11.242;2023-02-19T06:56:57;2.20;;;2.00;;
14125;SDS011;7141;49.484;11.242;2023-02-19T06:59:23;2.17;;;1.97;;
14125;SDS011;7141;49.484;11.242;2023-02-19T07:01:49;1.80;;;1.70;;
14125;SDS011;7141;49.484;11.242;2023-02-19T07:04:15;2.63;;;2.33;;
14125;SDS011;7141;49.484;11.242;2023-02-19T07:06:41;2.83;;;2.00;;
14125;SDS011;7141;49.484;11.242;2023-02-19T07:09:07;1.83;;;1.73;;
14125;SDS011;7141;49.484;11.242;2023-02-19T07:11:34;2.50;;;2.30;;
14125;SDS011;7141;49.484;11.242;2023-02-19T07:14:01;4.33;;;2.43;;
14125;SDS011;7141;49.484;11.242;2023-02-19T07:16:28;2.50;;;2.30;;
14125;SDS011;7141;49.484;11.242;2023-02-19T07:18:55;2.20;;;2.00;;
14125;SDS011;7141;49.484;11.242;2023-02-19T07:21:21;1.80;;;1.70;;
14125;SDS011;7141;49.484;11.242;2023-02-19T07:23:47;2.50;;;2.00;;
14125;SDS011;7141;49.484;11.242;2023-02-19T07:26:15;1.93;;;1.73;;
14125;SDS011;7141;49.484;11.242;2023-02-19T07:28:42;2.50;;;2.10;;
14125;SDS011;7141;49.484;11.242;2023-02-19T07:31:08;1.83;;;1.60;;
14125;SDS011;7141;49.484;11.242;2023-02-19T07:33:34;2.00;;;1.80;;
14125;SDS011;7141;49.484;11.242;2023-02-19T07:36:00;2.17;;;1.77;;
14125;SDS011;7141;49.484;11.242;2023-02-19T07:38:26;1.53;;;1.43;;
14125;SDS011;7141;49.484;11.242;2023-02-19T07:40:53;2.70;;;1.70;;
14125;SDS011;7141;49.484;11.242;2023-02-19T07:43:19;1.80;;;1.60;;
14125;SDS011;7141;49.484;11.242;2023-02-19T07:45:46;2.20;;;2.00;;
14125;SDS011;7141;49.484;11.242;2023-02-19T07:48:12;2.10;;;1.77;;
14125;SDS011;7141;49.484;11.242;2023-02-19T07:50:38;2.90;;;2.00;;
14125;SDS011;7141;49.484;11.242;2023-02-19T07:53:04;1.80;;;1.70;;
14125;SDS011;7141;49.484;11.242;2023-02-19T07:55:30;1.70;;;1.60;;
14125;SDS011;7141;49.484;11.242;2023-02-19T07:57:57;1.80;;;1.70;;
14125;SDS011;7141;49.484;11.242;2023-02-19T08:00:23;1.87;;;1.70;;
14125;SDS011;7141;49.484;11.242;2023-02-19T08:02:50;1.60;;;1.50;;
14125;SDS011;7141;49.484;11.242;2023-02-19T08:05:30;1.70;;;1.40;;
14125;SDS011;7141;49.484;11.242;2023-02-19T08:07:56;2.30;;;2.00;;
14125;SDS011;7141;49.484;11.242;2023-02-19T08:10:22;1.60;;;1.50;;
14125;SDS011;7141;49.484;11.242;2023-02-19T08:13:11;1.70;;;1.60;;
14125;SDS011;7141;49.484;11.242;2023-02-19T08:15:53;1.77;;;1.67;;
14125;SDS011;7141;49.484;11.242;2023-02-19T08:18:21;2.23;;;1.83;;
14125;SDS011;7141;49.484;11.242;2023-02-19T08:20:47;1.83;;;1.50;;
14125;SDS011;7141;49.484;11.242;2023-02-19T08:23:14;1.60;;;1.50;;
14125;SDS011;7141;49.484;11.242;2023-02-19T08:25:40;2.73;;;1.70;;
14125;SDS011;7141;49.484;11.242;2023-02-19T08:28:07;2.00;;;1.80;;
14125;SDS011;7141;49.484;11.242;2023-02-19T08:30:33;2.63;;;1.70;;
14125;SDS011;7141;49.484;11.242;2023-02-19T08:33:02;1.50;;;1.40;;
14125;SDS011;7141;49.484;11.242;2023-02-19T08:35:28;1.60;;;1.50;;
14125;SDS011;7141;49.484;11.242;2023-02-19T08:37:54;1.67;;;1.57;;
14125;SDS011;7141;49.484;11.242;2023-02-19T08:40:21;6.37;;;2.00;;
14125;SDS011;7141;49.484;11.242;2023-02-19T08:42:47;2.40;;;1.80;;
14125;SDS011;7141;49.484;11.242;2023-02-19T08:45:13;1.60;;;1.50;;
14125;SDS011;7141;49.484;11.242;2023-02-19T08:47:39;1.93;;;1.73;;
14125;SDS011;7141;49.484;11.242;2023-02-19T08:50:05;2.20;;;1.60;;
14125;SDS011;7141;49.484;11.242;2023-02-19T08:52:32;1.60;;;1.50;;
14125;SDS011;7141;49.484;11.242;2023-02-19T08:54:58;1.50;;;1.40;;
14125;SDS011;7141;49.484;11.242;2023-02-19T08:57:24;1.50;;;1.40;;
14125;SDS011;7141;49.484;11.242;2023-02-19T08:59:51;1.97;;;1.40;;
14125;SDS011;7141;49.484;11.242;2023-02-19T09:02:17;1.50;;;1.40;;
14125;SDS011;7141;49.484;11.242;2023-02-19T09:04:42;1.40;;;1.30;;
14125;SDS011;7141;49.484;11.242;2023-02-19T09:07:08;1.47;;;1.37;;
14125;SDS011;7141;49.484;11.242;2023-02-19T09:09:35;1.77;;;1.40;;
14125;SDS011;7141;49.484;11.242;2023-02-19T09:12:03;1.47;;;1.33;;
14125;SDS011;7141;49.484;11.242;2023-02-19T09:14:32;1.47;;;1.37;;
14125;SDS011;7141;49.484;11.242;2023-02-19T09:16:59;1.50;;;1.40;;
14125;SDS011;7141;49.484;11.242;2023-02-19T09:19:26;1.40;;;1.30;;
14125;SDS011;7141;49.484;11.242;2023-02-19T09:21:52;1.80;;;1.50;;
14125;SDS011;7141;49.484;11.242;2023-02-19T09:24:18;1.73;;;1.30;;
14125;SDS011;7141;49.484;11.242;2023-02-19T09:26:44;1.60;;;1.20;;
14125;SDS011;7141;49.484;11.242;2023-02-19T09:29:10;2.23;;;1.47;;
14125;SDS011;7141;49.484;11.242;2023-02-19T09:31:36;3.20;;;1.47;;
14125;SDS011;7141;49.484;11.242;2023-02-19T09:34:02;2.63;;;1.80;;
14125;SDS011;7141;49.484;11.242;2023-02-19T09:36:28;2.07;;;1.83;;
14125;SDS011;7141;49.484;11.242;2023-02-19T09:38:53;1.77;;;1.50;;
14125;SDS011;7141;49.484;11.242;2023-02-19T09:41:25;1.40;;;1.30;;
14125;SDS011;7141;49.484;11.242;2023-02-19T09:43:53;1.60;;;1.50;;
14125;SDS011;7141;49.484;11.242;2023-02-19T09:48:49;1.70;;;1.60;;
14125;SDS011;7141;49.484;11.242;2023-02-19T09:51:15;1.77;;;1.60;;
14125;SDS011;7141;49.484;11.242;2023-02-19T09:53:43;2.53;;;1.40;;
14125;SDS011;7141;49.484;11.242;2023-02-19T09:56:10;1.90;;;1.70;;
14125;SDS011;7141;49.484;11.242;2023-02-19T09:58:47;3.10;;;1.50;;
14125;SDS011;7141;49.484;11.242;2023-02-19T10:01:13;3.87;;;1.80;;
14125;SDS011;7141;49.484;11.242;2023-02-19T10:03:40;2.60;;;1.57;;
14125;SDS011;7141;49.484;11.242;2023-02-19T10:06:18;2.33;;;1.83;;
14125;SDS011;7141;49.484;11.242;2023-02-19T10:08:46;3.63;;;1.70;;
14125;SDS011;7141;49.484;11.242;2023-02-19T10:11:12;3.77;;;2.10;;
14125;SDS011;7141;49.484;11.242;2023-02-19T10:13:43;4.63;;;2.10;;
14125;SDS011;7141;49.484;11.242;2023-02-19T10:16:10;1.87;;;1.70;;
14125;SDS011;7141;49.484;11.242;2023-02-19T10:18:40;1.90;;;1.70;;
14125;SDS011;7141;49.484;11.242;2023-02-19T10:21:14;2.53;;;1.70;;
14125;SDS011;7141;49.484;11.242;2023-02-19T10:23:40;3.33;;;1.90;;
14125;SDS011;7141;49.484;11.242;2023-02-19T10:26:07;2.80;;;1.70;;
14125;SDS011;7141;49.484;11.242;2023-02-19T10:28:34;2.20;;;2.00;;
14125;SDS011;7141;49.484;11.242;2023-02-19T10:31:01;2.03;;;1.83;;
14125;SDS011;7141;49.484;11.242;2023-02-19T10:33:27;2.87;;;1.80;;
14125;SDS011;7141;49.484;11.242;2023-02-19T10:35:54;3.63;;;2.10;;
14125;SDS011;7141;49.484;11.242;2023-02-19T10:38:22;2.73;;;2.00;;
14125;SDS011;7141;49.484;11.242;2023-02-19T10:40:50;2.57;;;2.03;;
14125;SDS011;7141;49.484;11.242;2023-02-19T10:43:21;2.07;;;1.73;;
14125;SDS011;7141;49.484;11.242;2023-02-19T10:45:55;2.23;;;1.80;;
14125;SDS011;7141;49.484;11.242;2023-02-19T10:48:22;4.03;;;2.10;;
14125;SDS011;7141;49.484;11.242;2023-02-19T10:50:56;3.40;;;2.20;;
14125;SDS011;7141;49.484;11.242;2023-02-19T10:53:51;3.07;;;1.93;;
14125;SDS011;7141;49.484;11.242;2023-02-19T10:56:27;2.63;;;2.00;;
14125;SDS011;7141;49.484;11.242;2023-02-19T10:58:55;2.77;;;2.10;;
14125;SDS011;7141;49.484;11.242;2023-02-19T11:01:38;2.03;;;1.83;;
14125;SDS011;7141;49.484;11.242;2023-02-19T11:04:17;4.77;;;1.90;;
14125;SDS011;7141;49.484;11.242;2023-02-19T11:06:44;3.40;;;1.70;;
14125;SDS011;7141;49.484;11.242;2023-02-19T11:09:27;2.63;;;2.40;;
14125;SDS011;7141;49.484;11.242;2023-02-19T11:11:54;4.37;;;2.53;;
14125;SDS011;7141;49.484;11.242;2023-02-19T11:14:21;3.50;;;2.53;;
14125;SDS011;7141;49.484;11.242;2023-02-19T11:16:49;6.00;;;2.20;;
14125;SDS011;7141;49.484;11.242;2023-02-19T11:22:32;4.43;;;2.30;;
14125;SDS011;7141;49.484;11.242;2023-02-19T11:25:02;4.53;;;2.37;;
14125;SDS011;7141;49.484;11.242;2023-02-19T11:27:29;5.47;;;2.43;;
14125;SDS011;7141;49.484;11.242;2023-02-19T11:30:21;4.27;;;2.93;;
14125;SDS011;7141;49.484;11.242;2023-02-19T11:32:41;3.73;;;2.60;;
14125;SDS011;7141;49.484;11.242;2023-02-19T11:35:14;4.97;;;3.07;;
14125;SDS011;7141;49.484;11.242;2023-02-19T11:37:54;3.93;;;2.90;;
14125;SDS011;7141;49.484;11.242;2023-02-19T11:40:22;3.13;;;2.70;;
14125;SDS011;7141;49.484;11.242;2023-02-19T11:42:55;4.13;;;2.80;;
14125;SDS011;7141;49.484;11.242;2023-02-19T11:55:22;4.23;;;2.67;;
14125;SDS011;7141;49.484;11.242;2023-02-19T11:57:53;4.63;;;2.80;;
14125;SDS011;7141;49.484;11.242;2023-02-19T12:00:29;3.83;;;2.90;;
14125;SDS011;7141;49.484;11.242;2023-02-19T12:11:03;4.80;;;2.43;;
14125;SDS011;7141;49.484;11.242;2023-02-19T12:13:44;7.83;;;3.03;;
14125;SDS011;7141;49.484;11.242;2023-02-19T12:21:24;4.70;;;2.63;;
14125;SDS011;7141;49.484;11.242;2023-02-19T12:26:26;6.10;;;3.00;;
14125;SDS011;7141;49.484;11.242;2023-02-19T12:31:46;2.83;;;2.37;;
14125;SDS011;7141;49.484;11.242;2023-02-19T12:41:45;4.20;;;2.70;;
14125;SDS011;7141;49.484;11.242;2023-02-19T12:44:22;3.73;;;2.27;;
14125;SDS011;7141;49.484;11.242;2023-02-19T12:46:52;2.63;;;2.13;;
14125;SDS011;7141;49.484;11.242;2023-02-19T12:49:31;4.37;;;3.00;;
14125;SDS011;7141;49.484;11.242;2023-02-19T12:51:59;6.20;;;4.43;;
14125;SDS011;7141;49.484;11.242;2023-02-19T12:54:28;7.00;;;4.47;;
14125;SDS011;7141;49.484;11.242;2023-02-19T12:59:32;4.63;;;3.13;;
14125;SDS011;7141;49.484;11.242;2023-02-19T13:04:31;6.17;;;3.20;;
14125;SDS011;7141;49.484;11.242;2023-02-19T13:07:11;4.97;;;3.00;;
14125;SDS011;7141;49.484;11.242;2023-02-19T13:09:50;3.97;;;2.60;;
14125;SDS011;7141;49.484;11.242;2023-02-19T13:12:20;8.47;;;5.93;;
14125;SDS011;7141;49.484;11.242;2023-02-19T13:15:02;14.43;;;7.37;;
14125;SDS011;7141;49.484;11.242;2023-02-19T13:17:40;13.13;;;7.13;;
14125;SDS011;7141;49.484;11.242;2023-02-19T13:31:08;10.07;;;5.87;;
14125;SDS011;7141;49.484;11.242;2023-02-19T13:38:42;10.00;;;5.80;;
14125;SDS011;7141;49.484;11.242;2023-02-19T13:41:18;7.10;;;5.03;;
14125;SDS011;7141;49.484;11.242;2023-02-19T13:43:45;7.73;;;4.03;;
14125;SDS011;7141;49.484;11.242;2023-02-19T13:46:12;21.23;;;11.97;;
14125;SDS011;7141;49.484;11.242;2023-02-19T13:48:40;5.33;;;3.63;;
14125;SDS011;7141;49.484;11.242;2023-02-19T13:53:58;16.90;;;9.27;;
14125;SDS011;7141;49.484;11.242;2023-02-19T14:19:46;8.90;;;3.30;;
14125;SDS011;7141;49.484;11.242;2023-02-19T14:24:58;11.90;;;6.07;;
14125;SDS011;7141;49.484;11.242;2023-02-19T14:27:25;5.67;;;2.90;;
14125;SDS011;7141;49.484;11.242;2023-02-19T14:29:51;12.23;;;7.17;;
14125;SDS011;7141;49.484;11.242;2023-02-19T14:32:18;2.87;;;1.93;;
14125;SDS011;7141;49.484;11.242;2023-02-19T14:34:44;4.57;;;2.27;;
14125;SDS011;7141;49.484;11.242;2023-02-19T14:37:18;6.43;;;4.10;;
14125;SDS011;7141;49.484;11.242;2023-02-19T14:39:45;12.97;;;7.13;;
14125;SDS011;7141;49.484;11.242;2023-02-19T14:42:14;19.40;;;9.43;;
14125;SDS011;7141;49.484;11.242;2023-02-19T14:44:57;12.10;;;7.30;;
14125;SDS011;7141;49.484;11.242;2023-02-19T14:47:24;8.17;;;4.37;;
14125;SDS011;7141;49.484;11.242;2023-02-19T14:49:52;15.60;;;8.00;;
14125;SDS011;7141;49.484;11.242;2023-02-19T14:57:22;6.73;;;3.70;;
14125;SDS011;7141;49.484;11.242;2023-02-19T14:59:54;5.37;;;2.70;;
14125;SDS011;7141;49.484;11.242;2023-02-19T15:02:22;11.70;;;6.40;;
14125;SDS011;7141;49.484;11.242;2023-02-19T15:04:50;13.27;;;7.17;;
14125;SDS011;7141;49.484;11.242;2023-02-19T15:07:17;23.53;;;11.47;;
14125;SDS011;7141;49.484;11.242;2023-02-19T15:09:46;12.97;;;6.10;;
14125;SDS011;7141;49.484;11.242;2023-02-19T15:12:20;8.67;;;4.30;;
14125;SDS011;7141;49.484;11.242;2023-02-19T15:14:47;19.57;;;9.67;;
14125;SDS011;7141;49.484;11.242;2023-02-19T15:17:16;15.13;;;6.83;;
14125;SDS011;7141;49.484;11.242;2023-02-19T15:19:45;14.17;;;7.13;;
14125;SDS011;7141;49.484;11.242;2023-02-19T15:22:13;8.80;;;4.73;;
14125;SDS011;7141;49.484;11.242;2023-02-19T15:24:42;5.33;;;3.63;;
14125;SDS011;7141;49.484;11.242;2023-02-19T15:27:16;11.83;;;6.47;;
14125;SDS011;7141;49.484;11.242;2023-02-19T15:29:44;18.83;;;9.97;;
14125;SDS011;7141;49.484;11.242;2023-02-19T15:32:20;10.07;;;5.23;;
14125;SDS011;7141;49.484;11.242;2023-02-19T15:34:56;5.00;;;2.70;;
14125;SDS011;7141;49.484;11.242;2023-02-19T15:37:23;7.03;;;2.90;;
14125;SDS011;7141;49.484;11.242;2023-02-19T15:39:50;5.23;;;3.23;;
14125;SDS011;7141;49.484;11.242;2023-02-19T15:42:19;4.27;;;2.23;;
14125;SDS011;7141;49.484;11.242;2023-02-19T15:49:45;4.90;;;2.70;;
14125;SDS011;7141;49.484;11.242;2023-02-19T15:52:27;3.83;;;2.80;;
14125;SDS011;7141;49.484;11.242;2023-02-19T15:57:42;3.90;;;2.47;;
14125;SDS011;7141;49.484;11.242;2023-02-19T16:02:39;4.73;;;2.87;;
14125;SDS011;7141;49.484;11.242;2023-02-19T16:05:15;5.27;;;2.87;;
14125;SDS011;7141;49.484;11.242;2023-02-19T16:07:54;5.53;;;3.70;;
14125;SDS011;7141;49.484;11.242;2023-02-19T16:10:29;6.43;;;3.40;;
14125;SDS011;7141;49.484;11.242;2023-02-19T16:12:57;5.47;;;2.60;;
14125;SDS011;7141;49.484;11.242;2023-02-19T16:15:23;11.63;;;6.47;;
14125;SDS011;7141;49.484;11.242;2023-02-19T16:17:49;5.33;;;2.90;;
14125;SDS011;7141;49.484;11.242;2023-02-19T16:20:18;6.27;;;3.20;;
14125;SDS011;7141;49.484;11.242;2023-02-19T16:22:44;5.13;;;2.53;;
14125;SDS011;7141;49.484;11.242;2023-02-19T16:25:20;4.93;;;3.10;;
14125;SDS011;7141;49.484;11.242;2023-02-19T16:27:47;5.27;;;2.80;;
14125;SDS011;7141;49.484;11.242;2023-02-19T16:33:10;3.43;;;2.50;;
14125;SDS011;7141;49.484;11.242;2023-02-19T16:35:38;5.90;;;2.73;;
14125;SDS011;7141;49.484;11.242;2023-02-19T16:38:14;4.67;;;2.63;;
14125;SDS011;7141;49.484;11.242;2023-02-19T16:45:42;7.23;;;2.87;;
14125;SDS011;7141;49.484;11.242;2023-02-19T16:48:08;4.37;;;2.37;;
14125;SDS011;7141;49.484;11.242;2023-02-19T16:50:34;4.47;;;2.53;;
14125;SDS011;7141;49.484;11.242;2023-02-19T16:53:01;4.53;;;2.90;;
14125;SDS011;7141;49.484;11.242;2023-02-19T16:55:28;5.10;;;2.63;;
14125;SDS011;7141;49.484;11.242;2023-02-19T16:57:56;4.17;;;2.43;;
14125;SDS011;7141;49.484;11.242;2023-02-19T17:00:23;3.80;;;2.87;;
14125;SDS011;7141;49.484;11.242;2023-02-19T17:02:50;4.40;;;2.43;;
14125;SDS011;7141;49.484;11.242;2023-02-19T17:05:17;7.30;;;2.70;;
14125;SDS011;7141;49.484;11.242;2023-02-19T17:07:43;4.20;;;2.50;;
14125;SDS011;7141;49.484;11.242;2023-02-19T17:10:11;4.60;;;2.33;;
14125;SDS011;7141;49.484;11.242;2023-02-19T17:12:38;4.83;;;3.13;;
14125;SDS011;7141;49.484;11.242;2023-02-19T17:15:04;4.17;;;2.73;;
14125;SDS011;7141;49.484;11.242;2023-02-19T17:17:30;4.10;;;2.97;;